Hunt City, Illinois
Current Conditions -  °F | °C
As of 5:35 PM on Wednesday 22 Oct 2014 (Local Time) from KRSV Reporting Station
Clear Clear  
Wind Chill: 60°   Ceiling: Unl
Heat Index: 60°   Visibility: 10mi
Dew Point: 43°   Wind: 3mph
Humidity: 55%   Direction: 60°ENE
Pressure: 30.25"   Gusts: NA
Location:  38.9751°N, 88.0102°W
Report Text: KRSV 222235Z AUTO 06003KT 10SM CLR 15/06 A3025 RMK AO2 T01540063
Loading
Personal Weather Stations






























Interactive Weather Map
Tropical Storm Tracking
New forecast layout! Learn more

10-Day Weather Forecast

Advertisements
Track Severe Weather on mobile